Time;durP1;ratioP1;P1;durP2;ratioP2;P2;SDS_P1;SDS_P2;PMS_P1;PMS_P2;Temp;Humidity;BMP_temperature;BMP_pressure;BME280_temperature;BME280_humidity;BME280_pressure;Samples;Min_cycle;Max_cycle;Signal;HPM_P1;HPM_P2
2021/08/05 00:00:12;;;;;;;;;3.33;3.33;;;;;;;;5012459;27;45596;-79
2021/08/05 00:02:37;;;;;;;;;5.50;4.50;;;;;;;;5027247;27;45439;-79
2021/08/05 00:05:02;;;;;;;;;4.33;4.33;;;;;;;;5028076;28;45970;-80
2021/08/05 00:07:27;;;;;;;;;3.75;3.50;;;;;;;;5020453;27;45508;-78
2021/08/05 00:09:53;;;;;;;;;7.33;6.33;;;;;;;;5024374;27;45325;-79
2021/08/05 00:12:18;;;;;;;;;5.33;4.00;;;;;;;;5030170;28;45618;-80
2021/08/05 00:14:43;;;;;;;;;6.00;4.33;;;;;;;;5022353;27;45538;-80
2021/08/05 00:17:09;;;;;;;;;5.00;5.00;;;;;;;;5012074;27;45574;-80
2021/08/05 00:19:34;;;;;;;;;3.50;3.50;;;;;;;;5043745;27;45622;-80
2021/08/05 00:22:00;;;;;;;;;7.50;5.00;;;;;;;;5039633;27;45422;-80
2021/08/05 00:24:25;;;;;;;;;5.67;5.00;;;;;;;;5027286;28;45583;-79
2021/08/05 00:26:50;;;;;;;;;5.67;3.67;;;;;;;;5028363;27;45521;-80
2021/08/05 00:29:15;;;;;;;;;4.25;4.25;;;;;;;;5000218;27;45431;-79
2021/08/05 00:31:41;;;;;;;;;4.67;3.67;;;;;;;;5007867;28;45485;-80
2021/08/05 00:34:06;;;;;;;;;5.33;4.00;;;;;;;;5025870;27;45397;-79
2021/08/05 00:36:31;;;;;;;;;3.00;3.00;;;;;;;;5031118;27;45202;-80
2021/08/05 00:38:56;;;;;;;;;4.00;4.00;;;;;;;;5027086;27;45349;-79
2021/08/05 00:41:21;;;;;;;;;4.00;4.00;;;;;;;;5027586;27;45994;-79
2021/08/05 00:43:47;;;;;;;;;5.00;4.00;;;;;;;;5025944;28;45598;-79
2021/08/05 00:46:12;;;;;;;;;3.00;2.67;;;;;;;;5027190;27;45721;-79
2021/08/05 00:48:37;;;;;;;;;4.00;4.00;;;;;;;;5012048;27;45486;-80
2021/08/05 00:51:02;;;;;;;;;3.00;3.00;;;;;;;;5021218;27;45895;-79
2021/08/05 00:53:28;;;;;;;;;5.00;4.33;;;;;;;;5020022;27;47078;-79
2021/08/05 00:55:53;;;;;;;;;4.00;3.00;;;;;;;;5041443;28;45550;-80
2021/08/05 00:58:18;;;;;;;;;3.75;3.75;;;;;;;;5029988;27;45590;-80
2021/08/05 01:00:47;;;;;;;;;4.67;4.67;;;;;;;;5022226;27;45465;-79
2021/08/05 01:03:22;;;;;;;;;3.00;3.00;;;;;;;;5004485;28;48184;-79
2021/08/05 01:05:50;;;;;;;;;3.00;3.00;;;;;;;;5030069;27;45599;-80
2021/08/05 01:08:18;;;;;;;;;4.00;4.00;;;;;;;;5026467;27;45855;-80
2021/08/05 01:10:44;;;;;;;;;2.75;2.75;;;;;;;;5028797;28;45945;-79
2021/08/05 01:13:09;;;;;;;;;4.00;3.00;;;;;;;;5027447;27;46116;-80
2021/08/05 01:15:35;;;;;;;;;4.67;4.00;;;;;;;;5040843;28;51534;-80
2021/08/05 01:18:08;;;;;;;;;4.00;4.00;;;;;;;;5018022;28;45628;-80
2021/08/05 01:20:34;;;;;;;;;3.00;3.00;;;;;;;;5022237;27;45464;-79
2021/08/05 01:23:05;;;;;;;;;4.75;4.00;;;;;;;;5022486;28;46608;-79
2021/08/05 01:25:33;;;;;;;;;7.25;5.50;;;;;;;;5020991;28;45759;-80
2021/08/05 01:28:00;;;;;;;;;4.75;3.25;;;;;;;;5032373;27;45583;-80
2021/08/05 01:30:26;;;;;;;;;4.25;4.00;;;;;;;;5025693;27;45517;-79
2021/08/05 01:32:52;;;;;;;;;3.25;3.00;;;;;;;;5043684;28;46100;-79
2021/08/05 01:35:17;;;;;;;;;5.00;5.00;;;;;;;;5023477;27;45323;-80
2021/08/05 01:37:43;;;;;;;;;5.00;4.33;;;;;;;;5026386;27;48803;-79
2021/08/05 01:40:09;;;;;;;;;3.00;3.00;;;;;;;;5029089;27;45471;-80
2021/08/05 01:42:36;;;;;;;;;5.00;4.00;;;;;;;;5007473;27;48332;-80
2021/08/05 01:45:02;;;;;;;;;6.75;4.00;;;;;;;;5025550;27;45833;-80
2021/08/05 01:47:28;;;;;;;;;5.00;4.00;;;;;;;;5028580;27;45555;-80
2021/08/05 01:49:54;;;;;;;;;5.00;3.50;;;;;;;;5040399;28;45337;-79
2021/08/05 01:52:20;;;;;;;;;4.00;4.00;;;;;;;;5025400;27;46228;-80
2021/08/05 01:54:45;;;;;;;;;9.25;5.00;;;;;;;;5020826;27;46002;-79
2021/08/05 01:57:11;;;;;;;;;3.75;3.75;;;;;;;;5028618;27;45402;-79
2021/08/05 01:59:36;;;;;;;;;6.00;5.75;;;;;;;;5024149;27;45501;-80
2021/08/05 02:02:02;;;;;;;;;5.00;5.00;;;;;;;;5043894;27;45387;-79
2021/08/05 02:04:36;;;;;;;;;4.25;4.00;;;;;;;;5028858;27;45688;-79
2021/08/05 02:07:12;;;;;;;;;3.50;3.50;;;;;;;;5039804;28;45709;-79
2021/08/05 02:10:01;;;;;;;;;5.00;4.75;;;;;;;;5016081;27;45308;-79
2021/08/05 02:12:47;;;;;;;;;7.25;4.50;;;;;;;;4982800;27;47221;-80
2021/08/05 02:15:15;;;;;;;;;4.75;4.00;;;;;;;;4967760;28;46503;-79
2021/08/05 02:17:42;;;;;;;;;7.75;7.00;;;;;;;;4968474;28;45738;-79
2021/08/05 02:20:08;;;;;;;;;5.00;5.00;;;;;;;;4962831;28;45442;-79
2021/08/05 02:22:33;;;;;;;;;7.25;5.25;;;;;;;;4962105;28;45572;-79
2021/08/05 02:24:59;;;;;;;;;7.00;5.00;;;;;;;;4964635;28;45779;-80
2021/08/05 02:27:25;;;;;;;;;6.50;5.00;;;;;;;;4969850;28;45612;-79
2021/08/05 02:29:51;;;;;;;;;9.50;7.75;;;;;;;;4967570;28;45639;-80
2021/08/05 02:32:17;;;;;;;;;5.75;4.75;;;;;;;;4964068;28;46033;-80
2021/08/05 02:34:42;;;;;;;;;6.00;4.75;;;;;;;;4981267;28;45760;-79
2021/08/05 02:37:08;;;;;;;;;6.50;6.00;;;;;;;;4983611;27;45657;-79
2021/08/05 02:39:33;;;;;;;;;7.00;6.00;;;;;;;;4959346;28;45361;-79
2021/08/05 02:41:59;;;;;;;;;7.50;7.50;;;;;;;;4962641;28;46062;-80
2021/08/05 02:44:26;;;;;;;;;5.00;4.25;;;;;;;;4967145;28;45462;-80
2021/08/05 02:46:51;;;;;;;;;8.75;5.25;;;;;;;;4965437;28;45555;-80
2021/08/05 02:49:17;;;;;;;;;10.25;6.00;;;;;;;;4992394;28;45544;-80
2021/08/05 02:51:44;;;;;;;;;5.25;5.25;;;;;;;;5024159;27;47519;-80
2021/08/05 02:54:09;;;;;;;;;7.50;6.75;;;;;;;;5024040;28;45451;-79
2021/08/05 02:56:35;;;;;;;;;9.00;9.00;;;;;;;;5025177;27;45624;-79
2021/08/05 02:59:00;;;;;;;;;6.00;6.00;;;;;;;;5024918;28;45490;-79
2021/08/05 03:01:27;;;;;;;;;7.00;5.50;;;;;;;;5044782;28;48252;-79
2021/08/05 03:03:53;;;;;;;;;8.00;5.50;;;;;;;;5029987;27;45420;-79
2021/08/05 03:06:24;;;;;;;;;7.00;6.25;;;;;;;;5014325;27;45411;-79
2021/08/05 03:08:49;;;;;;;;;6.25;6.00;;;;;;;;5014217;27;45719;-79
2021/08/05 03:11:14;;;;;;;;;8.00;8.00;;;;;;;;5028077;27;46526;-79
2021/08/05 03:13:39;;;;;;;;;8.00;7.00;;;;;;;;5027640;28;45694;-79
2021/08/05 03:16:05;;;;;;;;;7.33;5.00;;;;;;;;5029135;27;45528;-79
2021/08/05 03:18:30;;;;;;;;;8.00;6.75;;;;;;;;5022028;27;45611;-79
2021/08/05 03:20:55;;;;;;;;;9.33;6.33;;;;;;;;5044623;28;46594;-79
2021/08/05 03:23:20;;;;;;;;;12.25;7.50;;;;;;;;5028174;28;45424;-79
2021/08/05 03:25:46;;;;;;;;;7.67;6.33;;;;;;;;5008938;27;45797;-79
2021/08/05 03:28:11;;;;;;;;;5.33;5.33;;;;;;;;5023760;27;45528;-79
2021/08/05 03:30:36;;;;;;;;;6.33;6.33;;;;;;;;5022848;27;47218;-79
2021/08/05 03:33:01;;;;;;;;;9.00;7.00;;;;;;;;5030203;27;45437;-79
2021/08/05 03:35:27;;;;;;;;;7.00;6.33;;;;;;;;5025428;27;45413;-79
2021/08/05 03:37:52;;;;;;;;;5.00;5.00;;;;;;;;5019286;28;45397;-78
2021/08/05 03:40:17;;;;;;;;;9.00;7.00;;;;;;;;5017976;27;47079;-78
2021/08/05 03:42:42;;;;;;;;;6.33;6.33;;;;;;;;5020945;27;45341;-78
2021/08/05 03:45:08;;;;;;;;;7.00;7.00;;;;;;;;5022582;27;45346;-78
2021/08/05 03:47:33;;;;;;;;;9.25;6.50;;;;;;;;5042409;28;45512;-78
2021/08/05 03:49:58;;;;;;;;;6.00;5.33;;;;;;;;5010501;28;47962;-78
2021/08/05 03:52:24;;;;;;;;;12.67;10.33;;;;;;;;5031112;27;45435;-78
2021/08/05 03:54:49;;;;;;;;;7.67;6.67;;;;;;;;5008139;27;45460;-78
2021/08/05 03:57:14;;;;;;;;;8.33;6.33;;;;;;;;5029519;27;45516;-78
2021/08/05 03:59:39;;;;;;;;;9.67;6.33;;;;;;;;5011711;27;47697;-78
2021/08/05 04:02:04;;;;;;;;;8.00;7.00;;;;;;;;5027738;27;45473;-78
2021/08/05 04:04:30;;;;;;;;;8.00;8.00;;;;;;;;5075317;27;45360;-78
2021/08/05 04:06:55;;;;;;;;;7.25;7.25;;;;;;;;5021763;27;45405;-77
2021/08/05 04:09:21;;;;;;;;;9.00;6.25;;;;;;;;5031633;27;45452;-79
2021/08/05 04:11:46;;;;;;;;;9.25;6.25;;;;;;;;5009766;27;46271;-78
2021/08/05 04:14:11;;;;;;;;;8.67;7.33;;;;;;;;5017573;27;45446;-78
2021/08/05 04:16:36;;;;;;;;;9.00;7.00;;;;;;;;5027774;28;45484;-79
2021/08/05 04:19:01;;;;;;;;;12.33;8.00;;;;;;;;5014134;27;45582;-78
2021/08/05 04:21:27;;;;;;;;;8.33;8.33;;;;;;;;5030073;27;46879;-78
2021/08/05 04:23:52;;;;;;;;;11.00;8.33;;;;;;;;5009889;28;45477;-78
2021/08/05 04:26:17;;;;;;;;;8.00;8.00;;;;;;;;5041854;28;45488;-79
2021/08/05 04:28:42;;;;;;;;;12.33;9.00;;;;;;;;5052153;27;48630;-79
2021/08/05 04:31:08;;;;;;;;;7.00;7.00;;;;;;;;5029798;27;45686;-78
2021/08/05 04:33:34;;;;;;;;;8.00;8.00;;;;;;;;5029645;27;45465;-79
2021/08/05 04:36:00;;;;;;;;;8.00;8.00;;;;;;;;5029524;27;46926;-78
2021/08/05 04:38:25;;;;;;;;;8.00;8.00;;;;;;;;5023797;27;46088;-77
2021/08/05 04:40:50;;;;;;;;;9.00;9.00;;;;;;;;5025258;28;49251;-80
2021/08/05 04:43:15;;;;;;;;;9.00;7.67;;;;;;;;5022625;27;45366;-79
2021/08/05 04:45:41;;;;;;;;;9.00;9.00;;;;;;;;5027493;27;45393;-79
2021/08/05 04:48:07;;;;;;;;;9.50;7.75;;;;;;;;5009397;27;47352;-78
2021/08/05 04:50:37;;;;;;;;;7.00;7.00;;;;;;;;5024259;27;45483;-78
2021/08/05 04:53:03;;;;;;;;;9.75;7.50;;;;;;;;5026277;28;45438;-78
2021/08/05 04:55:28;;;;;;;;;7.50;7.50;;;;;;;;5013616;27;45470;-78
2021/08/05 04:57:58;;;;;;;;;8.00;8.00;;;;;;;;5018532;27;48405;-78
2021/08/05 05:00:27;;;;;;;;;9.00;8.25;;;;;;;;5027318;27;45609;-78
2021/08/05 05:02:52;;;;;;;;;7.50;7.50;;;;;;;;5042050;28;45564;-78
2021/08/05 05:05:18;;;;;;;;;8.25;7.75;;;;;;;;5023706;27;46744;-79
2021/08/05 05:07:43;;;;;;;;;8.25;7.00;;;;;;;;5022692;28;46321;-79
2021/08/05 05:10:09;;;;;;;;;10.67;10.33;;;;;;;;5026801;27;45539;-78
2021/08/05 05:12:34;;;;;;;;;9.50;8.00;;;;;;;;5047642;27;45373;-78
2021/08/05 05:14:59;;;;;;;;;10.25;8.75;;;;;;;;5009174;27;45538;-78
2021/08/05 05:17:25;;;;;;;;;9.67;6.33;;;;;;;;5021789;27;45698;-79
2021/08/05 05:19:50;;;;;;;;;8.25;8.00;;;;;;;;5033131;27;45493;-78
2021/08/05 05:22:15;;;;;;;;;8.00;8.00;;;;;;;;5027244;27;48412;-79
2021/08/05 05:24:40;;;;;;;;;12.67;9.67;;;;;;;;5018874;27;45283;-79
2021/08/05 05:27:05;;;;;;;;;13.33;9.00;;;;;;;;5026954;27;45412;-78
2021/08/05 05:29:31;;;;;;;;;11.33;9.67;;;;;;;;5006581;27;45490;-79
2021/08/05 05:31:56;;;;;;;;;8.67;7.67;;;;;;;;5018866;28;45425;-79
2021/08/05 05:34:21;;;;;;;;;8.50;7.25;;;;;;;;5031823;27;45524;-78
2021/08/05 05:36:47;;;;;;;;;11.33;10.33;;;;;;;;5033756;27;46216;-77
2021/08/05 05:39:12;;;;;;;;;9.25;6.75;;;;;;;;5027494;27;45420;-79
2021/08/05 05:41:37;;;;;;;;;9.75;9.00;;;;;;;;5040000;27;45585;-79
2021/08/05 05:44:03;;;;;;;;;9.00;9.00;;;;;;;;5026752;28;45742;-79
2021/08/05 05:46:28;;;;;;;;;8.75;8.75;;;;;;;;5029048;27;46160;-79
2021/08/05 05:48:53;;;;;;;;;11.33;9.00;;;;;;;;5038834;27;45377;-79
2021/08/05 05:51:18;;;;;;;;;7.00;6.00;;;;;;;;5014553;27;45705;-77
2021/08/05 05:53:43;;;;;;;;;10.00;9.67;;;;;;;;5009064;27;45525;-79
2021/08/05 05:56:10;;;;;;;;;10.00;8.67;;;;;;;;5022839;27;45613;-78
2021/08/05 05:58:35;;;;;;;;;11.75;9.25;;;;;;;;5042005;28;45642;-79
2021/08/05 06:01:00;;;;;;;;;14.67;12.00;;;;;;;;5022301;28;45401;-78
2021/08/05 06:03:25;;;;;;;;;10.00;10.00;;;;;;;;5082605;27;45546;-78
2021/08/05 06:05:50;;;;;;;;;10.33;7.67;;;;;;;;5022923;27;45538;-78
2021/08/05 06:08:16;;;;;;;;;13.00;13.00;;;;;;;;5009971;27;45582;-77
2021/08/05 06:10:41;;;;;;;;;12.33;10.00;;;;;;;;5026838;28;46179;-78
2021/08/05 06:13:06;;;;;;;;;11.00;11.00;;;;;;;;5037570;28;45542;-77
2021/08/05 06:15:32;;;;;;;;;14.00;12.50;;;;;;;;5042741;28;49481;-79
2021/08/05 06:17:57;;;;;;;;;11.67;10.33;;;;;;;;5022391;27;45660;-79
2021/08/05 06:20:22;;;;;;;;;13.33;9.33;;;;;;;;5024441;27;45595;-77
2021/08/05 06:22:48;;;;;;;;;12.33;12.33;;;;;;;;5017178;28;45652;-78
2021/08/05 06:25:14;;;;;;;;;13.00;11.25;;;;;;;;5001547;27;47087;-77
2021/08/05 06:27:39;;;;;;;;;10.00;9.00;;;;;;;;5042629;28;45492;-76
2021/08/05 06:30:05;;;;;;;;;10.33;9.67;;;;;;;;5023001;27;45639;-78
2021/08/05 06:32:31;;;;;;;;;15.25;9.75;;;;;;;;5024188;27;46090;-78
2021/08/05 06:34:56;;;;;;;;;12.25;12.25;;;;;;;;5022134;28;46191;-78
2021/08/05 06:37:21;;;;;;;;;12.33;11.33;;;;;;;;5041683;28;45545;-79
2021/08/05 06:39:47;;;;;;;;;12.00;10.33;;;;;;;;5025034;27;45657;-79
2021/08/05 06:42:12;;;;;;;;;12.67;12.33;;;;;;;;5023579;27;45431;-80
2021/08/05 06:44:38;;;;;;;;;11.33;10.33;;;;;;;;5011293;27;47381;-77
2021/08/05 06:47:04;;;;;;;;;10.50;8.75;;;;;;;;5025270;28;46034;-78
2021/08/05 06:49:29;;;;;;;;;16.00;11.50;;;;;;;;5023739;27;45331;-75
2021/08/05 06:51:54;;;;;;;;;9.25;8.50;;;;;;;;5081967;27;45475;-78
2021/08/05 06:54:20;;;;;;;;;9.00;7.00;;;;;;;;5023539;27;46173;-77
2021/08/05 06:56:45;;;;;;;;;11.33;10.67;;;;;;;;5041915;28;45321;-77
2021/08/05 06:59:13;;;;;;;;;15.67;10.67;;;;;;;;5006181;27;45580;-77
2021/08/05 07:01:38;;;;;;;;;12.50;12.00;;;;;;;;5024613;28;45542;-78
2021/08/05 07:04:03;;;;;;;;;10.67;10.67;;;;;;;;5025484;27;45675;-77
2021/08/05 07:06:28;;;;;;;;;11.33;11.33;;;;;;;;5024085;27;45333;-78
2021/08/05 07:08:53;;;;;;;;;18.33;12.00;;;;;;;;5023475;27;45751;-78
2021/08/05 07:11:19;;;;;;;;;12.33;10.00;;;;;;;;5020810;27;45232;-77
2021/08/05 07:13:44;;;;;;;;;11.33;10.00;;;;;;;;5024613;28;45422;-77
2021/08/05 07:16:09;;;;;;;;;13.67;11.67;;;;;;;;5024611;27;45286;-77
2021/08/05 07:18:34;;;;;;;;;18.00;14.67;;;;;;;;5027241;27;45689;-77
2021/08/05 07:21:00;;;;;;;;;13.25;11.75;;;;;;;;5025660;27;45550;-78
2021/08/05 07:23:25;;;;;;;;;11.00;10.00;;;;;;;;5014875;28;45365;-77
2021/08/05 07:25:50;;;;;;;;;13.67;12.00;;;;;;;;5022008;27;45295;-77
2021/08/05 07:28:16;;;;;;;;;10.75;10.75;;;;;;;;5024605;27;45466;-78
2021/08/05 07:30:41;;;;;;;;;17.25;13.25;;;;;;;;5025954;27;45344;-78
2021/08/05 07:33:06;;;;;;;;;11.50;11.50;;;;;;;;5025583;27;46271;-75
2021/08/05 07:35:31;;;;;;;;;13.00;12.75;;;;;;;;5023573;27;45439;-75
2021/08/05 07:37:57;;;;;;;;;12.67;11.33;;;;;;;;5022050;28;45730;-76
2021/08/05 07:40:22;;;;;;;;;18.00;12.67;;;;;;;;5024356;27;45543;-78
2021/08/05 07:42:47;;;;;;;;;16.00;13.33;;;;;;;;4999046;27;45917;-77
2021/08/05 07:45:13;;;;;;;;;12.25;10.75;;;;;;;;5006046;27;45476;-77
2021/08/05 07:47:38;;;;;;;;;16.75;13.25;;;;;;;;5006369;27;45455;-74
2021/08/05 07:50:04;;;;;;;;;15.50;11.75;;;;;;;;5007335;28;45455;-77
2021/08/05 07:52:29;;;;;;;;;15.25;10.50;;;;;;;;5005991;27;46274;-76
2021/08/05 07:54:54;;;;;;;;;11.33;9.00;;;;;;;;5009250;27;45501;-76
2021/08/05 07:57:19;;;;;;;;;11.00;10.00;;;;;;;;5012330;27;45590;-76
2021/08/05 07:59:45;;;;;;;;;17.33;12.67;;;;;;;;5006568;27;45422;-75
2021/08/05 08:02:11;;;;;;;;;14.25;12.00;;;;;;;;5001764;27;46123;-77
2021/08/05 08:04:36;;;;;;;;;12.25;11.00;;;;;;;;5006994;28;45389;-76
2021/08/05 08:07:02;;;;;;;;;12.00;12.00;;;;;;;;5008037;27;45428;-76
2021/08/05 08:09:27;;;;;;;;;14.25;12.75;;;;;;;;5000729;27;45420;-77
2021/08/05 08:11:52;;;;;;;;;12.00;10.00;;;;;;;;5039961;28;47329;-78
2021/08/05 08:14:17;;;;;;;;;14.67;13.33;;;;;;;;5011637;27;45548;-78
2021/08/05 08:16:43;;;;;;;;;13.00;10.33;;;;;;;;5006192;28;45479;-80
2021/08/05 08:19:08;;;;;;;;;15.00;12.00;;;;;;;;5003096;27;45952;-79
2021/08/05 08:21:33;;;;;;;;;14.50;12.75;;;;;;;;5010431;27;45583;-78
2021/08/05 08:23:58;;;;;;;;;10.33;10.33;;;;;;;;5000700;28;45715;-78
2021/08/05 08:26:24;;;;;;;;;13.33;12.33;;;;;;;;5007853;27;45569;-78
2021/08/05 08:28:49;;;;;;;;;12.33;11.00;;;;;;;;5009496;28;45516;-77
2021/08/05 08:31:14;;;;;;;;;10.67;10.00;;;;;;;;5007577;27;46231;-79
2021/08/05 08:33:39;;;;;;;;;11.00;9.00;;;;;;;;5008869;27;45365;-77
2021/08/05 08:36:05;;;;;;;;;9.25;8.75;;;;;;;;5001301;27;45423;-79
2021/08/05 08:38:30;;;;;;;;;9.50;6.50;;;;;;;;5007969;27;45390;-80
2021/08/05 08:40:57;;;;;;;;;9.75;9.00;;;;;;;;5004406;27;45956;-79
2021/08/05 08:43:22;;;;;;;;;12.25;11.75;;;;;;;;5020683;27;45670;-79
2021/08/05 08:45:51;;;;;;;;;9.33;9.33;;;;;;;;5028108;27;46134;-80
2021/08/05 08:48:16;;;;;;;;;12.25;9.00;;;;;;;;5003364;27;45619;-79
2021/08/05 08:50:42;;;;;;;;;12.33;10.33;;;;;;;;5024578;27;46031;-80
2021/08/05 08:53:08;;;;;;;;;11.00;9.25;;;;;;;;5024419;28;45794;-79
2021/08/05 08:55:34;;;;;;;;;9.50;9.00;;;;;;;;5024429;28;45550;-79
2021/08/05 08:58:00;;;;;;;;;8.50;8.25;;;;;;;;5033411;27;45568;-78
2021/08/05 09:00:26;;;;;;;;;12.25;10.00;;;;;;;;5011735;27;47456;-78
2021/08/05 09:02:51;;;;;;;;;8.50;7.25;;;;;;;;5009012;27;46299;-78
2021/08/05 09:05:17;;;;;;;;;10.33;10.00;;;;;;;;5040195;27;45458;-77
2021/08/05 09:07:44;;;;;;;;;10.25;7.00;;;;;;;;5031434;27;45276;-78
2021/08/05 09:10:10;;;;;;;;;11.75;8.25;;;;;;;;5015211;27;45674;-76
2021/08/05 09:12:35;;;;;;;;;10.25;9.75;;;;;;;;5025059;27;45647;-79
2021/08/05 09:15:00;;;;;;;;;9.67;9.33;;;;;;;;5042844;28;45446;-78
2021/08/05 09:17:30;;;;;;;;;9.00;9.00;;;;;;;;5038207;27;45624;-77
2021/08/05 09:19:57;;;;;;;;;10.50;9.00;;;;;;;;5019594;27;45567;-77
2021/08/05 09:22:31;;;;;;;;;11.25;10.25;;;;;;;;5021294;27;45916;-77
2021/08/05 09:24:56;;;;;;;;;9.75;9.50;;;;;;;;5026658;27;45682;-78
2021/08/05 09:27:34;;;;;;;;;13.33;8.67;;;;;;;;5023697;27;45550;-77
2021/08/05 09:29:59;;;;;;;;;9.00;9.00;;;;;;;;5018177;27;45431;-77
2021/08/05 09:32:29;;;;;;;;;10.75;8.00;;;;;;;;5025539;27;45472;-79
2021/08/05 09:35:05;;;;;;;;;12.25;8.00;;;;;;;;5025486;28;45471;-78
2021/08/05 09:37:37;;;;;;;;;5.75;5.00;;;;;;;;5026726;27;45437;-79
2021/08/05 09:40:13;;;;;;;;;7.00;6.00;;;;;;;;5060823;27;46522;-78
2021/08/05 09:42:38;;;;;;;;;6.00;4.00;;;;;;;;5027105;27;45928;-81
2021/08/05 09:45:05;;;;;;;;;6.75;5.50;;;;;;;;5044606;27;45949;-79
2021/08/05 09:47:30;;;;;;;;;3.50;3.50;;;;;;;;5024973;27;45528;-79
2021/08/05 09:49:56;;;;;;;;;5.33;4.00;;;;;;;;5024922;28;45552;-78
2021/08/05 09:52:31;;;;;;;;;4.00;3.25;;;;;;;;5009658;27;45904;-79
2021/08/05 09:54:58;;;;;;;;;4.00;4.00;;;;;;;;5023071;27;45516;-79
2021/08/05 09:57:23;;;;;;;;;8.00;4.00;;;;;;;;5022577;27;45568;-78
2021/08/05 09:59:56;;;;;;;;;5.00;5.00;;;;;;;;5024807;27;45853;-78
2021/08/05 10:02:21;;;;;;;;;5.75;3.00;;;;;;;;5024991;27;45786;-78
2021/08/05 10:04:48;;;;;;;;;3.00;3.00;;;;;;;;5016933;27;45374;-79
2021/08/05 10:07:14;;;;;;;;;3.00;3.00;;;;;;;;5021832;27;45494;-80
2021/08/05 10:09:40;;;;;;;;;4.25;4.25;;;;;;;;5027688;27;45663;-79
2021/08/05 10:12:13;;;;;;;;;3.50;3.00;;;;;;;;5032334;27;45402;-81
2021/08/05 10:14:39;;;;;;;;;5.25;4.00;;;;;;;;5036244;27;45705;-79
2021/08/05 10:17:06;;;;;;;;;4.00;4.00;;;;;;;;5021107;27;45885;-80
2021/08/05 10:19:34;;;;;;;;;6.00;4.00;;;;;;;;5027734;27;46205;-79
2021/08/05 10:22:00;;;;;;;;;5.00;4.00;;;;;;;;5029081;27;45618;-79
2021/08/05 10:24:25;;;;;;;;;4.00;4.00;;;;;;;;5000240;27;45489;-78
2021/08/05 10:26:50;;;;;;;;;4.33;4.00;;;;;;;;5024543;27;45431;-76
2021/08/05 10:29:16;;;;;;;;;4.25;4.00;;;;;;;;5023700;27;46285;-78
2021/08/05 10:31:42;;;;;;;;;4.50;4.50;;;;;;;;5043651;27;45378;-78
2021/08/05 10:34:09;;;;;;;;;7.75;5.00;;;;;;;;5026793;27;45552;-83
2021/08/05 10:36:36;;;;;;;;;5.25;5.25;;;;;;;;5014024;27;45919;-83
2021/08/05 10:39:01;;;;;;;;;4.00;4.00;;;;;;;;5025905;27;45397;-82
2021/08/05 10:41:28;;;;;;;;;7.50;3.75;;;;;;;;5019078;27;45495;-84
2021/08/05 10:43:54;;;;;;;;;5.00;4.00;;;;;;;;5038896;28;45461;-81
2021/08/05 10:46:20;;;;;;;;;4.00;3.00;;;;;;;;5029876;27;45250;-81
2021/08/05 10:48:47;;;;;;;;;5.00;3.75;;;;;;;;5021156;27;46577;-81
2021/08/05 10:51:12;;;;;;;;;5.00;3.00;;;;;;;;5028645;28;45455;-82
2021/08/05 10:53:42;;;;;;;;;4.00;4.00;;;;;;;;5019002;27;45487;-81
2021/08/05 10:56:23;;;;;;;;;5.00;4.25;;;;;;;;5020865;27;45480;-82
2021/08/05 10:59:00;;;;;;;;;2.25;2.25;;;;;;;;5002535;28;46236;-82
2021/08/05 11:01:47;;;;;;;;;5.50;4.00;;;;;;;;5027342;27;45633;-82
2021/08/05 11:04:31;;;;;;;;;2.00;2.00;;;;;;;;5026597;27;47453;-82
2021/08/05 11:07:16;;;;;;;;;4.50;2.50;;;;;;;;5025634;27;45411;-82
2021/08/05 11:09:41;;;;;;;;;4.00;2.75;;;;;;;;5020592;27;45531;-82
2021/08/05 11:12:25;;;;;;;;;3.33;3.33;;;;;;;;5034894;27;45540;-83
2021/08/05 11:14:50;;;;;;;;;4.00;3.00;;;;;;;;5023171;27;45300;-82
2021/08/05 11:17:16;;;;;;;;;2.00;2.00;;;;;;;;5043629;27;45451;-83
2021/08/05 11:19:42;;;;;;;;;3.00;2.00;;;;;;;;5024853;28;45725;-83
2021/08/05 11:22:25;;;;;;;;;4.75;2.75;;;;;;;;5028793;27;45896;-80
2021/08/05 11:24:50;;;;;;;;;3.00;3.00;;;;;;;;5023453;27;45418;-83
2021/08/05 11:27:20;;;;;;;;;5.00;3.00;;;;;;;;5046294;28;45583;-83
2021/08/05 11:29:46;;;;;;;;;2.75;2.25;;;;;;;;5024992;27;46097;-82
2021/08/05 11:32:24;;;;;;;;;3.25;3.25;;;;;;;;5018712;27;45478;-84
2021/08/05 11:34:56;;;;;;;;;2.00;2.00;;;;;;;;5024283;28;45523;-85
2021/08/05 11:37:22;;;;;;;;;3.50;3.00;;;;;;;;5029244;27;45289;-85
2021/08/05 11:39:51;;;;;;;;;3.00;3.00;;;;;;;;5029395;27;45877;-86
2021/08/05 11:42:20;;;;;;;;;3.00;3.00;;;;;;;;5025670;27;45520;-84
2021/08/05 11:44:51;;;;;;;;;3.25;2.00;;;;;;;;5026494;27;45429;-85
2021/08/05 11:47:35;;;;;;;;;3.00;3.00;;;;;;;;5036954;27;45487;-85
2021/08/05 11:50:04;;;;;;;;;2.00;2.00;;;;;;;;5045578;28;47534;-84
2021/08/05 11:52:29;;;;;;;;;3.25;3.00;;;;;;;;5026384;27;45674;-83
2021/08/05 11:54:59;;;;;;;;;2.00;2.00;;;;;;;;5028699;27;45342;-83
2021/08/05 11:57:25;;;;;;;;;2.50;2.50;;;;;;;;5010255;27;45529;-85
2021/08/05 11:59:54;;;;;;;;;3.00;3.00;;;;;;;;5025694;27;45638;-84
2021/08/05 12:02:21;;;;;;;;;3.00;2.00;;;;;;;;5012592;27;45485;-83
2021/08/05 12:04:47;;;;;;;;;3.00;3.00;;;;;;;;5022062;28;45894;-83
2021/08/05 12:07:16;;;;;;;;;4.75;3.00;;;;;;;;5049145;27;45536;-83
2021/08/05 12:09:41;;;;;;;;;3.00;3.00;;;;;;;;5029254;27;45647;-82
2021/08/05 12:12:07;;;;;;;;;2.00;2.00;;;;;;;;5040966;27;45556;-81
2021/08/05 12:14:32;;;;;;;;;3.00;2.00;;;;;;;;5042622;27;45486;-82
2021/08/05 12:16:57;;;;;;;;;3.00;3.00;;;;;;;;5043016;27;45634;-82
2021/08/05 12:19:23;;;;;;;;;3.00;3.00;;;;;;;;5026521;27;45546;-81
2021/08/05 12:21:48;;;;;;;;;3.75;2.25;;;;;;;;5025821;27;45411;-79
2021/08/05 12:24:13;;;;;;;;;3.00;2.75;;;;;;;;5026591;27;45789;-81
2021/08/05 12:26:38;;;;;;;;;4.00;3.00;;;;;;;;5038912;28;45681;-80
2021/08/05 12:29:10;;;;;;;;;2.00;2.00;;;;;;;;5019165;28;46277;-82
2021/08/05 12:31:36;;;;;;;;;2.00;2.00;;;;;;;;5022384;27;45817;-80
2021/08/05 12:34:01;;;;;;;;;3.00;3.00;;;;;;;;5011905;27;46538;-80
2021/08/05 12:36:26;;;;;;;;;2.00;2.00;;;;;;;;5043753;27;46047;-78
2021/08/05 12:38:55;;;;;;;;;2.00;2.00;;;;;;;;5028002;27;46099;-80
2021/08/05 12:41:23;;;;;;;;;2.00;2.00;;;;;;;;5025729;27;49293;-81
2021/08/05 12:43:49;;;;;;;;;2.75;2.75;;;;;;;;5031605;27;45666;-79
2021/08/05 12:46:14;;;;;;;;;1.75;1.75;;;;;;;;5029517;27;45638;-78
2021/08/05 12:48:41;;;;;;;;;1.50;1.50;;;;;;;;5025383;27;49198;-79
2021/08/05 12:51:06;;;;;;;;;1.75;1.75;;;;;;;;5014798;27;45577;-81
2021/08/05 12:53:33;;;;;;;;;1.50;1.50;;;;;;;;5028246;27;45444;-81
2021/08/05 12:55:59;;;;;;;;;1.00;1.00;;;;;;;;5053492;27;45483;-81
2021/08/05 12:58:26;;;;;;;;;1.75;1.25;;;;;;;;5028812;27;45541;-81
2021/08/05 13:00:52;;;;;;;;;3.75;2.75;;;;;;;;5029290;27;45525;-81
2021/08/05 13:03:17;;;;;;;;;1.25;1.25;;;;;;;;5030031;27;45504;-81
2021/08/05 13:05:56;;;;;;;;;2.50;1.00;;;;;;;;5028132;27;45542;-81
2021/08/05 13:08:28;;;;;;;;;1.00;1.00;;;;;;;;5021967;27;46078;-81
2021/08/05 13:10:53;;;;;;;;;0.50;0.50;;;;;;;;5025942;28;46434;-81
2021/08/05 13:13:39;;;;;;;;;1.00;0.00;;;;;;;;5034956;27;45476;-79
2021/08/05 13:16:23;;;;;;;;;0.50;0.50;;;;;;;;5022702;27;45684;-79
2021/08/05 13:19:04;;;;;;;;;0.00;0.00;;;;;;;;5021401;27;46348;-79
2021/08/05 13:21:30;;;;;;;;;0.00;0.00;;;;;;;;5030211;27;45793;-77
2021/08/05 13:24:09;;;;;;;;;0.50;0.50;;;;;;;;5029641;28;45418;-80
2021/08/05 13:26:35;;;;;;;;;0.00;0.00;;;;;;;;5026414;27;45457;-81
2021/08/05 13:29:00;;;;;;;;;0.00;0.00;;;;;;;;5024574;28;46366;-80
2021/08/05 13:31:26;;;;;;;;;0.00;0.00;;;;;;;;5022370;27;45599;-80
2021/08/05 13:34:26;;;;;;;;;0.75;0.75;;;;;;;;5027250;27;45345;-80
2021/08/05 13:36:52;;;;;;;;;1.00;1.00;;;;;;;;5068831;27;45627;-78
2021/08/05 13:39:17;;;;;;;;;0.75;0.75;;;;;;;;5070774;27;46842;-78
2021/08/05 13:41:42;;;;;;;;;1.00;1.00;;;;;;;;5051265;27;45743;-79
2021/08/05 13:44:07;;;;;;;;;2.00;2.00;;;;;;;;5050413;28;45656;-77
2021/08/05 13:46:33;;;;;;;;;0.00;0.00;;;;;;;;5052746;28;45572;-78
2021/08/05 13:48:58;;;;;;;;;1.67;0.33;;;;;;;;5069026;27;46779;-78
2021/08/05 13:51:24;;;;;;;;;1.00;1.00;;;;;;;;5071981;27;45466;-80
2021/08/05 13:53:50;;;;;;;;;1.00;1.00;;;;;;;;5069859;27;45525;-79
2021/08/05 13:56:16;;;;;;;;;1.50;1.50;;;;;;;;5068929;27;46206;-80
2021/08/05 13:58:41;;;;;;;;;2.50;1.00;;;;;;;;5068891;27;45616;-79
2021/08/05 14:01:06;;;;;;;;;1.33;1.33;;;;;;;;5066977;27;45529;-79
2021/08/05 14:03:32;;;;;;;;;0.00;0.00;;;;;;;;5070705;27;45562;-79
2021/08/05 14:05:57;;;;;;;;;2.00;2.00;;;;;;;;5070373;27;45479;-79
2021/08/05 14:08:22;;;;;;;;;1.50;1.50;;;;;;;;5069180;27;45466;-79
2021/08/05 14:10:48;;;;;;;;;1.00;1.00;;;;;;;;5049393;27;45503;-80
2021/08/05 14:13:17;;;;;;;;;0.00;0.00;;;;;;;;5037310;28;45480;-79
2021/08/05 14:15:42;;;;;;;;;1.00;1.00;;;;;;;;5034273;27;45415;-80
2021/08/05 14:18:07;;;;;;;;;2.00;0.67;;;;;;;;5055667;27;45993;-80
2021/08/05 14:20:32;;;;;;;;;2.25;1.00;;;;;;;;5023599;27;45509;-78
2021/08/05 14:22:58;;;;;;;;;1.67;1.67;;;;;;;;5036978;27;45446;-79
2021/08/05 14:25:23;;;;;;;;;1.75;1.75;;;;;;;;5023095;27;45560;-79
2021/08/05 14:27:49;;;;;;;;;1.75;1.75;;;;;;;;5042049;28;47080;-78
2021/08/05 14:30:14;;;;;;;;;2.33;2.33;;;;;;;;5026793;27;45541;-79
2021/08/05 14:32:41;;;;;;;;;3.75;3.00;;;;;;;;5010820;27;45511;-79
2021/08/05 14:35:07;;;;;;;;;2.00;2.00;;;;;;;;5001999;28;46102;-79